sensor_id;sensor_type;location;lat;lon;timestamp;P1;durP1;ratioP1;P2;durP2;ratioP2
22223;SDS011;11281;52.194;21.006;2023-06-19T00:02:39;10.82;;;7.10;;
22223;SDS011;11281;52.194;21.006;2023-06-19T00:06:42;12.25;;;7.90;;
22223;SDS011;11281;52.194;21.006;2023-06-19T00:10:43;11.07;;;7.97;;
22223;SDS011;11281;52.194;21.006;2023-06-19T00:14:45;14.63;;;8.68;;
22223;SDS011;11281;52.194;21.006;2023-06-19T00:18:47;16.63;;;9.75;;
22223;SDS011;11281;52.194;21.006;2023-06-19T00:22:49;20.55;;;10.73;;
22223;SDS011;11281;52.194;21.006;2023-06-19T00:26:52;17.13;;;9.63;;
22223;SDS011;11281;52.194;21.006;2023-06-19T00:30:55;20.23;;;10.88;;
22223;SDS011;11281;52.194;21.006;2023-06-19T00:34:56;17.90;;;10.10;;
22223;SDS011;11281;52.194;21.006;2023-06-19T00:38:58;15.93;;;9.95;;
22223;SDS011;11281;52.194;21.006;2023-06-19T00:43:00;13.70;;;9.15;;
22223;SDS011;11281;52.194;21.006;2023-06-19T00:47:03;15.23;;;9.18;;
22223;SDS011;11281;52.194;21.006;2023-06-19T00:51:05;14.90;;;9.68;;
22223;SDS011;11281;52.194;21.006;2023-06-19T00:55:07;15.05;;;9.45;;
22223;SDS011;11281;52.194;21.006;2023-06-19T00:59:17;13.55;;;9.38;;
22223;SDS011;11281;52.194;21.006;2023-06-19T01:03:20;12.70;;;8.52;;
22223;SDS011;11281;52.194;21.006;2023-06-19T01:07:23;12.70;;;9.07;;
22223;SDS011;11281;52.194;21.006;2023-06-19T01:11:52;13.35;;;8.18;;
22223;SDS011;11281;52.194;21.006;2023-06-19T01:15:59;11.95;;;8.55;;
22223;SDS011;11281;52.194;21.006;2023-06-19T01:20:04;15.07;;;9.38;;
22223;SDS011;11281;52.194;21.006;2023-06-19T01:24:12;12.73;;;8.88;;
22223;SDS011;11281;52.194;21.006;2023-06-19T01:28:14;15.68;;;9.52;;
22223;SDS011;11281;52.194;21.006;2023-06-19T01:32:20;14.90;;;9.73;;
22223;SDS011;11281;52.194;21.006;2023-06-19T01:37:04;16.38;;;10.13;;
22223;SDS011;11281;52.194;21.006;2023-06-19T01:41:08;17.63;;;9.65;;
22223;SDS011;11281;52.194;21.006;2023-06-19T01:45:12;14.27;;;9.65;;
22223;SDS011;11281;52.194;21.006;2023-06-19T01:49:13;15.80;;;10.07;;
22223;SDS011;11281;52.194;21.006;2023-06-19T01:53:15;16.65;;;9.65;;
22223;SDS011;11281;52.194;21.006;2023-06-19T01:57:17;14.88;;;9.75;;
22223;SDS011;11281;52.194;21.006;2023-06-19T02:01:18;13.43;;;9.32;;
22223;SDS011;11281;52.194;21.006;2023-06-19T02:05:20;14.80;;;9.85;;
22223;SDS011;11281;52.194;21.006;2023-06-19T02:09:22;16.02;;;10.73;;
22223;SDS011;11281;52.194;21.006;2023-06-19T02:13:24;15.77;;;10.15;;
22223;SDS011;11281;52.194;21.006;2023-06-19T02:17:26;15.30;;;10.85;;
22223;SDS011;11281;52.194;21.006;2023-06-19T02:21:27;13.48;;;9.68;;
22223;SDS011;11281;52.194;21.006;2023-06-19T02:25:29;13.13;;;9.82;;
22223;SDS011;11281;52.194;21.006;2023-06-19T02:29:31;12.93;;;8.95;;
22223;SDS011;11281;52.194;21.006;2023-06-19T02:33:35;14.27;;;9.57;;
22223;SDS011;11281;52.194;21.006;2023-06-19T02:37:37;14.27;;;9.43;;
22223;SDS011;11281;52.194;21.006;2023-06-19T02:41:39;11.80;;;8.55;;
22223;SDS011;11281;52.194;21.006;2023-06-19T02:45:43;10.57;;;8.25;;
22223;SDS011;11281;52.194;21.006;2023-06-19T02:49:45;14.25;;;8.68;;
22223;SDS011;11281;52.194;21.006;2023-06-19T02:53:46;12.50;;;8.25;;
22223;SDS011;11281;52.194;21.006;2023-06-19T02:57:48;10.93;;;8.00;;
22223;SDS011;11281;52.194;21.006;2023-06-19T03:01:50;11.35;;;8.32;;
22223;SDS011;11281;52.194;21.006;2023-06-19T03:05:52;10.35;;;7.40;;
22223;SDS011;11281;52.194;21.006;2023-06-19T03:09:54;12.25;;;8.85;;
22223;SDS011;11281;52.194;21.006;2023-06-19T03:13:56;10.32;;;7.68;;
22223;SDS011;11281;52.194;21.006;2023-06-19T03:17:58;9.75;;;7.75;;
22223;SDS011;11281;52.194;21.006;2023-06-19T03:22:04;13.70;;;8.48;;
22223;SDS011;11281;52.194;21.006;2023-06-19T03:26:07;14.30;;;9.13;;
22223;SDS011;11281;52.194;21.006;2023-06-19T03:30:09;12.82;;;9.20;;
22223;SDS011;11281;52.194;21.006;2023-06-19T03:34:14;14.18;;;8.82;;
22223;SDS011;11281;52.194;21.006;2023-06-19T03:38:16;12.77;;;8.55;;
22223;SDS011;11281;52.194;21.006;2023-06-19T03:42:17;14.20;;;8.63;;
22223;SDS011;11281;52.194;21.006;2023-06-19T03:46:19;11.68;;;8.98;;
22223;SDS011;11281;52.194;21.006;2023-06-19T03:50:20;12.77;;;8.82;;
22223;SDS011;11281;52.194;21.006;2023-06-19T03:54:22;12.15;;;8.45;;
22223;SDS011;11281;52.194;21.006;2023-06-19T03:58:24;12.15;;;9.50;;
22223;SDS011;11281;52.194;21.006;2023-06-19T04:02:25;13.13;;;8.95;;
22223;SDS011;11281;52.194;21.006;2023-06-19T04:06:28;10.90;;;8.57;;
22223;SDS011;11281;52.194;21.006;2023-06-19T04:10:29;12.60;;;7.82;;
22223;SDS011;11281;52.194;21.006;2023-06-19T04:14:31;13.00;;;8.98;;
22223;SDS011;11281;52.194;21.006;2023-06-19T04:18:33;12.45;;;9.57;;
22223;SDS011;11281;52.194;21.006;2023-06-19T04:22:36;15.27;;;10.18;;
22223;SDS011;11281;52.194;21.006;2023-06-19T04:26:40;13.77;;;10.10;;
22223;SDS011;11281;52.194;21.006;2023-06-19T04:30:43;15.50;;;10.07;;
22223;SDS011;11281;52.194;21.006;2023-06-19T04:34:45;13.10;;;10.07;;
22223;SDS011;11281;52.194;21.006;2023-06-19T04:38:48;13.77;;;10.18;;
22223;SDS011;11281;52.194;21.006;2023-06-19T04:42:53;13.85;;;10.30;;
22223;SDS011;11281;52.194;21.006;2023-06-19T04:46:54;13.15;;;9.90;;
22223;SDS011;11281;52.194;21.006;2023-06-19T04:51:02;13.95;;;9.35;;
22223;SDS011;11281;52.194;21.006;2023-06-19T04:55:05;12.60;;;9.32;;
22223;SDS011;11281;52.194;21.006;2023-06-19T04:59:09;15.88;;;9.90;;
22223;SDS011;11281;52.194;21.006;2023-06-19T05:03:11;15.02;;;9.63;;
22223;SDS011;11281;52.194;21.006;2023-06-19T05:07:14;14.10;;;9.60;;
22223;SDS011;11281;52.194;21.006;2023-06-19T05:11:19;14.48;;;10.45;;
22223;SDS011;11281;52.194;21.006;2023-06-19T05:15:21;17.58;;;11.00;;
22223;SDS011;11281;52.194;21.006;2023-06-19T05:19:23;16.58;;;11.40;;
22223;SDS011;11281;52.194;21.006;2023-06-19T05:23:25;17.02;;;10.55;;
22223;SDS011;11281;52.194;21.006;2023-06-19T05:27:27;16.73;;;10.45;;
22223;SDS011;11281;52.194;21.006;2023-06-19T05:31:29;15.75;;;10.52;;
22223;SDS011;11281;52.194;21.006;2023-06-19T05:35:31;14.52;;;9.93;;
22223;SDS011;11281;52.194;21.006;2023-06-19T05:39:32;16.10;;;10.73;;
22223;SDS011;11281;52.194;21.006;2023-06-19T05:43:35;16.05;;;10.20;;
22223;SDS011;11281;52.194;21.006;2023-06-19T05:47:37;17.30;;;10.32;;
22223;SDS011;11281;52.194;21.006;2023-06-19T05:51:38;15.93;;;10.57;;
22223;SDS011;11281;52.194;21.006;2023-06-19T05:55:40;15.10;;;10.43;;
22223;SDS011;11281;52.194;21.006;2023-06-19T05:59:42;13.52;;;9.57;;
22223;SDS011;11281;52.194;21.006;2023-06-19T06:03:44;13.88;;;9.90;;
22223;SDS011;11281;52.194;21.006;2023-06-19T06:07:46;11.93;;;9.07;;
22223;SDS011;11281;52.194;21.006;2023-06-19T06:11:55;9.35;;;6.85;;
22223;SDS011;11281;52.194;21.006;2023-06-19T06:15:57;8.63;;;7.05;;
22223;SDS011;11281;52.194;21.006;2023-06-19T06:19:59;7.32;;;5.32;;
22223;SDS011;11281;52.194;21.006;2023-06-19T06:24:00;7.30;;;5.72;;
22223;SDS011;11281;52.194;21.006;2023-06-19T06:28:04;7.90;;;6.18;;
22223;SDS011;11281;52.194;21.006;2023-06-19T06:32:06;9.23;;;5.63;;
22223;SDS011;11281;52.194;21.006;2023-06-19T06:36:08;5.50;;;4.07;;
22223;SDS011;11281;52.194;21.006;2023-06-19T06:40:10;5.65;;;4.13;;
22223;SDS011;11281;52.194;21.006;2023-06-19T06:44:12;4.60;;;3.63;;
22223;SDS011;11281;52.194;21.006;2023-06-19T06:48:14;4.88;;;3.90;;
22223;SDS011;11281;52.194;21.006;2023-06-19T06:52:16;4.15;;;3.75;;
22223;SDS011;11281;52.194;21.006;2023-06-19T06:56:18;3.35;;;3.05;;
22223;SDS011;11281;52.194;21.006;2023-06-19T07:00:19;5.00;;;4.00;;
22223;SDS011;11281;52.194;21.006;2023-06-19T07:04:21;4.68;;;4.18;;
22223;SDS011;11281;52.194;21.006;2023-06-19T07:08:23;6.45;;;4.80;;
22223;SDS011;11281;52.194;21.006;2023-06-19T07:12:24;4.68;;;4.20;;
22223;SDS011;11281;52.194;21.006;2023-06-19T07:16:26;5.40;;;4.20;;
22223;SDS011;11281;52.194;21.006;2023-06-19T07:20:28;6.20;;;5.13;;
22223;SDS011;11281;52.194;21.006;2023-06-19T07:24:30;7.07;;;4.90;;
22223;SDS011;11281;52.194;21.006;2023-06-19T07:28:31;9.93;;;6.45;;
22223;SDS011;11281;52.194;21.006;2023-06-19T07:32:33;7.15;;;5.75;;
22223;SDS011;11281;52.194;21.006;2023-06-19T07:36:34;8.25;;;6.35;;
22223;SDS011;11281;52.194;21.006;2023-06-19T07:40:36;10.35;;;7.35;;
22223;SDS011;11281;52.194;21.006;2023-06-19T07:44:38;8.05;;;6.18;;
22223;SDS011;11281;52.194;21.006;2023-06-19T07:48:40;11.10;;;7.45;;
22223;SDS011;11281;52.194;21.006;2023-06-19T07:52:42;11.00;;;7.47;;
22223;SDS011;11281;52.194;21.006;2023-06-19T07:56:44;7.63;;;6.00;;
22223;SDS011;11281;52.194;21.006;2023-06-19T08:00:45;8.52;;;6.72;;
22223;SDS011;11281;52.194;21.006;2023-06-19T08:04:47;10.77;;;7.75;;
22223;SDS011;11281;52.194;21.006;2023-06-19T08:08:49;8.50;;;6.53;;
22223;SDS011;11281;52.194;21.006;2023-06-19T08:12:52;7.65;;;6.43;;
22223;SDS011;11281;52.194;21.006;2023-06-19T08:16:54;8.75;;;5.97;;
22223;SDS011;11281;52.194;21.006;2023-06-19T08:20:56;8.63;;;6.45;;
22223;SDS011;11281;52.194;21.006;2023-06-19T08:24:57;7.35;;;5.90;;
22223;SDS011;11281;52.194;21.006;2023-06-19T08:28:59;8.38;;;5.93;;
22223;SDS011;11281;52.194;21.006;2023-06-19T08:33:01;9.80;;;6.60;;
22223;SDS011;11281;52.194;21.006;2023-06-19T08:37:03;7.63;;;5.95;;
22223;SDS011;11281;52.194;21.006;2023-06-19T08:41:07;9.63;;;6.43;;
22223;SDS011;11281;52.194;21.006;2023-06-19T08:45:09;6.97;;;5.85;;
22223;SDS011;11281;52.194;21.006;2023-06-19T08:49:10;7.38;;;5.93;;
22223;SDS011;11281;52.194;21.006;2023-06-19T08:53:13;6.75;;;5.65;;
22223;SDS011;11281;52.194;21.006;2023-06-19T08:57:15;6.55;;;5.78;;
22223;SDS011;11281;52.194;21.006;2023-06-19T09:01:17;5.78;;;5.18;;
22223;SDS011;11281;52.194;21.006;2023-06-19T09:05:24;5.78;;;4.95;;
22223;SDS011;11281;52.194;21.006;2023-06-19T09:09:26;6.00;;;4.80;;
22223;SDS011;11281;52.194;21.006;2023-06-19T09:13:28;5.45;;;4.50;;
22223;SDS011;11281;52.194;21.006;2023-06-19T09:17:31;4.60;;;4.13;;
22223;SDS011;11281;52.194;21.006;2023-06-19T09:21:35;7.70;;;4.70;;
22223;SDS011;11281;52.194;21.006;2023-06-19T09:25:48;5.65;;;4.03;;
22223;SDS011;11281;52.194;21.006;2023-06-19T09:29:53;4.40;;;3.78;;
22223;SDS011;11281;52.194;21.006;2023-06-19T09:33:56;5.00;;;4.50;;
22223;SDS011;11281;52.194;21.006;2023-06-19T09:37:58;5.65;;;4.35;;
22223;SDS011;11281;52.194;21.006;2023-06-19T09:42:00;5.35;;;4.15;;
22223;SDS011;11281;52.194;21.006;2023-06-19T09:46:05;5.63;;;4.55;;
22223;SDS011;11281;52.194;21.006;2023-06-19T09:50:07;6.20;;;4.30;;
22223;SDS011;11281;52.194;21.006;2023-06-19T09:54:13;6.20;;;4.57;;
22223;SDS011;11281;52.194;21.006;2023-06-19T09:58:20;4.95;;;4.03;;
22223;SDS011;11281;52.194;21.006;2023-06-19T10:02:22;4.32;;;3.92;;
22223;SDS011;11281;52.194;21.006;2023-06-19T10:06:26;5.13;;;4.05;;
22223;SDS011;11281;52.194;21.006;2023-06-19T10:10:28;4.68;;;3.72;;
22223;SDS011;11281;52.194;21.006;2023-06-19T10:14:30;6.03;;;5.28;;
22223;SDS011;11281;52.194;21.006;2023-06-19T10:18:32;4.80;;;4.07;;
22223;SDS011;11281;52.194;21.006;2023-06-19T10:22:53;6.43;;;4.40;;
22223;SDS011;11281;52.194;21.006;2023-06-19T10:27:22;5.43;;;4.38;;
22223;SDS011;11281;52.194;21.006;2023-06-19T10:31:26;4.40;;;4.00;;
22223;SDS011;11281;52.194;21.006;2023-06-19T10:35:29;4.65;;;3.92;;
22223;SDS011;11281;52.194;21.006;2023-06-19T10:39:40;5.80;;;4.43;;
22223;SDS011;11281;52.194;21.006;2023-06-19T10:43:42;3.85;;;3.45;;
22223;SDS011;11281;52.194;21.006;2023-06-19T10:48:00;4.70;;;3.40;;
22223;SDS011;11281;52.194;21.006;2023-06-19T10:52:04;4.13;;;3.72;;
22223;SDS011;11281;52.194;21.006;2023-06-19T10:56:06;6.15;;;4.03;;
22223;SDS011;11281;52.194;21.006;2023-06-19T11:00:08;5.00;;;3.72;;
22223;SDS011;11281;52.194;21.006;2023-06-19T11:04:14;5.25;;;3.38;;
22223;SDS011;11281;52.194;21.006;2023-06-19T11:08:17;4.07;;;3.13;;
22223;SDS011;11281;52.194;21.006;2023-06-19T11:12:20;4.47;;;3.33;;
22223;SDS011;11281;52.194;21.006;2023-06-19T11:16:22;3.53;;;3.22;;
22223;SDS011;11281;52.194;21.006;2023-06-19T11:20:23;4.45;;;3.55;;
22223;SDS011;11281;52.194;21.006;2023-06-19T11:24:26;3.88;;;3.13;;
22223;SDS011;11281;52.194;21.006;2023-06-19T11:28:29;3.30;;;3.00;;
22223;SDS011;11281;52.194;21.006;2023-06-19T11:32:31;3.25;;;2.95;;
22223;SDS011;11281;52.194;21.006;2023-06-19T11:36:42;3.40;;;3.10;;
22223;SDS011;11281;52.194;21.006;2023-06-19T11:40:44;4.25;;;3.22;;
22223;SDS011;11281;52.194;21.006;2023-06-19T11:44:54;4.00;;;3.20;;
22223;SDS011;11281;52.194;21.006;2023-06-19T11:49:10;3.75;;;3.13;;
22223;SDS011;11281;52.194;21.006;2023-06-19T11:53:18;3.78;;;2.95;;
22223;SDS011;11281;52.194;21.006;2023-06-19T11:57:26;3.50;;;3.20;;
22223;SDS011;11281;52.194;21.006;2023-06-19T12:01:27;3.67;;;3.30;;
22223;SDS011;11281;52.194;21.006;2023-06-19T12:05:31;4.00;;;3.38;;
22223;SDS011;11281;52.194;21.006;2023-06-19T12:09:33;4.65;;;3.92;;
22223;SDS011;11281;52.194;21.006;2023-06-19T12:13:35;4.00;;;3.45;;
22223;SDS011;11281;52.194;21.006;2023-06-19T12:17:37;4.03;;;3.63;;
22223;SDS011;11281;52.194;21.006;2023-06-19T12:21:39;6.07;;;3.75;;
22223;SDS011;11281;52.194;21.006;2023-06-19T12:25:41;4.55;;;3.65;;
22223;SDS011;11281;52.194;21.006;2023-06-19T12:29:42;5.20;;;3.58;;
22223;SDS011;11281;52.194;21.006;2023-06-19T12:33:44;4.60;;;3.80;;
22223;SDS011;11281;52.194;21.006;2023-06-19T12:37:48;4.18;;;3.65;;
22223;SDS011;11281;52.194;21.006;2023-06-19T12:41:50;5.10;;;3.70;;
22223;SDS011;11281;52.194;21.006;2023-06-19T12:45:54;5.88;;;3.90;;
22223;SDS011;11281;52.194;21.006;2023-06-19T12:49:56;3.67;;;3.38;;
22223;SDS011;11281;52.194;21.006;2023-06-19T12:53:58;6.20;;;3.72;;
22223;SDS011;11281;52.194;21.006;2023-06-19T12:57:59;5.15;;;3.40;;
22223;SDS011;11281;52.194;21.006;2023-06-19T13:02:01;4.60;;;3.25;;
22223;SDS011;11281;52.194;21.006;2023-06-19T13:06:02;4.05;;;3.08;;
22223;SDS011;11281;52.194;21.006;2023-06-19T13:10:04;5.07;;;3.80;;
22223;SDS011;11281;52.194;21.006;2023-06-19T13:14:06;3.45;;;3.15;;
22223;SDS011;11281;52.194;21.006;2023-06-19T13:18:08;5.18;;;3.58;;
22223;SDS011;11281;52.194;21.006;2023-06-19T13:22:10;4.70;;;3.75;;
22223;SDS011;11281;52.194;21.006;2023-06-19T13:26:11;4.38;;;3.83;;
22223;SDS011;11281;52.194;21.006;2023-06-19T13:30:13;4.93;;;3.22;;
22223;SDS011;11281;52.194;21.006;2023-06-19T13:34:15;3.70;;;3.33;;
22223;SDS011;11281;52.194;21.006;2023-06-19T13:38:19;5.28;;;3.42;;
22223;SDS011;11281;52.194;21.006;2023-06-19T13:42:22;4.78;;;3.35;;
22223;SDS011;11281;52.194;21.006;2023-06-19T13:46:23;4.18;;;3.58;;
22223;SDS011;11281;52.194;21.006;2023-06-19T13:50:25;3.90;;;3.47;;
22223;SDS011;11281;52.194;21.006;2023-06-19T13:54:27;4.07;;;3.38;;
22223;SDS011;11281;52.194;21.006;2023-06-19T13:58:28;3.90;;;3.50;;
22223;SDS011;11281;52.194;21.006;2023-06-19T14:02:31;4.53;;;3.38;;
22223;SDS011;11281;52.194;21.006;2023-06-19T14:06:32;3.28;;;2.97;;
22223;SDS011;11281;52.194;21.006;2023-06-19T14:10:33;3.75;;;3.35;;
22223;SDS011;11281;52.194;21.006;2023-06-19T14:14:36;3.63;;;3.05;;
22223;SDS011;11281;52.194;21.006;2023-06-19T14:18:38;4.75;;;3.53;;
22223;SDS011;11281;52.194;21.006;2023-06-19T14:22:40;3.65;;;3.00;;
22223;SDS011;11281;52.194;21.006;2023-06-19T14:26:42;3.50;;;3.20;;
22223;SDS011;11281;52.194;21.006;2023-06-19T14:30:44;3.88;;;3.50;;
22223;SDS011;11281;52.194;21.006;2023-06-19T14:34:46;4.10;;;3.47;;
22223;SDS011;11281;52.194;21.006;2023-06-19T14:38:47;3.88;;;3.22;;
22223;SDS011;11281;52.194;21.006;2023-06-19T14:42:49;3.67;;;3.38;;
22223;SDS011;11281;52.194;21.006;2023-06-19T14:46:51;4.15;;;3.20;;
22223;SDS011;11281;52.194;21.006;2023-06-19T14:50:52;4.22;;;3.60;;
22223;SDS011;11281;52.194;21.006;2023-06-19T14:54:54;3.75;;;3.42;;
22223;SDS011;11281;52.194;21.006;2023-06-19T14:58:56;4.75;;;3.65;;
22223;SDS011;11281;52.194;21.006;2023-06-19T15:02:58;3.15;;;2.85;;
22223;SDS011;11281;52.194;21.006;2023-06-19T15:07:00;3.97;;;3.58;;
22223;SDS011;11281;52.194;21.006;2023-06-19T15:11:02;3.80;;;3.38;;
22223;SDS011;11281;52.194;21.006;2023-06-19T15:15:05;4.70;;;3.50;;
22223;SDS011;11281;52.194;21.006;2023-06-19T15:19:08;4.28;;;3.30;;
22223;SDS011;11281;52.194;21.006;2023-06-19T15:23:09;4.82;;;4.05;;
22223;SDS011;11281;52.194;21.006;2023-06-19T15:27:11;3.70;;;2.95;;
22223;SDS011;11281;52.194;21.006;2023-06-19T15:31:13;4.30;;;3.80;;
22223;SDS011;11281;52.194;21.006;2023-06-19T15:35:16;4.60;;;3.63;;
22223;SDS011;11281;52.194;21.006;2023-06-19T15:39:18;4.30;;;3.85;;
22223;SDS011;11281;52.194;21.006;2023-06-19T15:43:19;9.88;;;4.22;;
22223;SDS011;11281;52.194;21.006;2023-06-19T15:47:21;7.72;;;4.40;;
22223;SDS011;11281;52.194;21.006;2023-06-19T15:51:23;3.97;;;3.33;;
22223;SDS011;11281;52.194;21.006;2023-06-19T15:55:24;6.10;;;4.07;;
22223;SDS011;11281;52.194;21.006;2023-06-19T15:59:28;4.85;;;3.72;;
22223;SDS011;11281;52.194;21.006;2023-06-19T16:03:31;5.40;;;3.95;;
22223;SDS011;11281;52.194;21.006;2023-06-19T16:07:33;4.80;;;3.97;;
22223;SDS011;11281;52.194;21.006;2023-06-19T16:11:35;5.15;;;3.83;;
22223;SDS011;11281;52.194;21.006;2023-06-19T16:15:36;5.45;;;3.65;;
22223;SDS011;11281;52.194;21.006;2023-06-19T16:19:38;5.80;;;4.15;;
22223;SDS011;11281;52.194;21.006;2023-06-19T16:23:40;5.40;;;3.67;;
22223;SDS011;11281;52.194;21.006;2023-06-19T16:27:42;5.78;;;4.43;;
22223;SDS011;11281;52.194;21.006;2023-06-19T16:31:44;4.82;;;3.67;;
22223;SDS011;11281;52.194;21.006;2023-06-19T16:35:45;4.50;;;3.42;;
22223;SDS011;11281;52.194;21.006;2023-06-19T16:39:48;7.75;;;4.10;;
22223;SDS011;11281;52.194;21.006;2023-06-19T16:43:50;5.22;;;3.80;;
22223;SDS011;11281;52.194;21.006;2023-06-19T16:47:52;6.88;;;4.05;;
22223;SDS011;11281;52.194;21.006;2023-06-19T16:51:54;4.97;;;3.78;;
22223;SDS011;11281;52.194;21.006;2023-06-19T16:55:56;4.63;;;3.83;;
22223;SDS011;11281;52.194;21.006;2023-06-19T16:59:59;7.03;;;4.63;;
22223;SDS011;11281;52.194;21.006;2023-06-19T17:04:01;6.93;;;4.53;;
22223;SDS011;11281;52.194;21.006;2023-06-19T17:08:03;6.88;;;4.28;;
22223;SDS011;11281;52.194;21.006;2023-06-19T17:12:05;4.05;;;3.65;;
22223;SDS011;11281;52.194;21.006;2023-06-19T17:16:07;6.07;;;4.25;;
22223;SDS011;11281;52.194;21.006;2023-06-19T17:20:09;5.13;;;4.18;;
22223;SDS011;11281;52.194;21.006;2023-06-19T17:24:12;5.38;;;4.40;;
22223;SDS011;11281;52.194;21.006;2023-06-19T17:28:15;6.15;;;4.28;;
22223;SDS011;11281;52.194;21.006;2023-06-19T17:32:16;6.20;;;4.97;;
22223;SDS011;11281;52.194;21.006;2023-06-19T17:36:18;5.75;;;5.10;;
22223;SDS011;11281;52.194;21.006;2023-06-19T17:40:20;8.15;;;5.20;;
22223;SDS011;11281;52.194;21.006;2023-06-19T17:44:22;6.80;;;4.82;;
22223;SDS011;11281;52.194;21.006;2023-06-19T17:48:26;9.80;;;6.07;;
22223;SDS011;11281;52.194;21.006;2023-06-19T17:52:28;6.55;;;5.25;;
22223;SDS011;11281;52.194;21.006;2023-06-19T17:56:30;13.40;;;8.77;;
22223;SDS011;11281;52.194;21.006;2023-06-19T18:00:32;24.38;;;11.18;;
22223;SDS011;11281;52.194;21.006;2023-06-19T18:04:33;17.10;;;8.77;;
22223;SDS011;11281;52.194;21.006;2023-06-19T18:08:35;11.77;;;7.40;;
22223;SDS011;11281;52.194;21.006;2023-06-19T18:12:37;13.45;;;6.60;;
22223;SDS011;11281;52.194;21.006;2023-06-19T18:16:40;8.40;;;6.40;;
22223;SDS011;11281;52.194;21.006;2023-06-19T18:20:43;13.18;;;5.88;;
22223;SDS011;11281;52.194;21.006;2023-06-19T18:24:45;9.85;;;6.90;;
22223;SDS011;11281;52.194;21.006;2023-06-19T18:28:47;9.88;;;6.13;;
22223;SDS011;11281;52.194;21.006;2023-06-19T18:32:48;8.13;;;5.68;;
22223;SDS011;11281;52.194;21.006;2023-06-19T18:36:50;10.13;;;6.82;;
22223;SDS011;11281;52.194;21.006;2023-06-19T18:40:52;8.43;;;6.70;;
22223;SDS011;11281;52.194;21.006;2023-06-19T18:44:54;11.50;;;6.68;;
22223;SDS011;11281;52.194;21.006;2023-06-19T18:48:55;10.18;;;7.55;;
22223;SDS011;11281;52.194;21.006;2023-06-19T18:52:58;13.13;;;7.65;;
22223;SDS011;11281;52.194;21.006;2023-06-19T18:56:59;10.60;;;6.63;;
22223;SDS011;11281;52.194;21.006;2023-06-19T19:01:01;11.90;;;7.53;;
22223;SDS011;11281;52.194;21.006;2023-06-19T19:05:03;7.97;;;6.00;;
22223;SDS011;11281;52.194;21.006;2023-06-19T19:09:06;8.15;;;6.15;;
22223;SDS011;11281;52.194;21.006;2023-06-19T19:13:08;7.70;;;6.00;;
22223;SDS011;11281;52.194;21.006;2023-06-19T19:17:09;9.77;;;6.13;;
22223;SDS011;11281;52.194;21.006;2023-06-19T19:21:11;11.38;;;6.78;;
22223;SDS011;11281;52.194;21.006;2023-06-19T19:25:13;8.18;;;6.25;;
22223;SDS011;11281;52.194;21.006;2023-06-19T19:29:15;9.32;;;7.03;;
22223;SDS011;11281;52.194;21.006;2023-06-19T19:33:17;9.35;;;6.75;;
22223;SDS011;11281;52.194;21.006;2023-06-19T19:37:18;6.95;;;6.20;;
22223;SDS011;11281;52.194;21.006;2023-06-19T19:41:20;9.77;;;6.95;;
22223;SDS011;11281;52.194;21.006;2023-06-19T19:45:21;9.75;;;6.90;;
22223;SDS011;11281;52.194;21.006;2023-06-19T19:49:23;10.70;;;7.50;;
22223;SDS011;11281;52.194;21.006;2023-06-19T19:53:24;10.98;;;6.90;;
22223;SDS011;11281;52.194;21.006;2023-06-19T19:57:26;8.75;;;7.20;;
22223;SDS011;11281;52.194;21.006;2023-06-19T20:01:28;11.13;;;7.65;;
22223;SDS011;11281;52.194;21.006;2023-06-19T20:05:30;14.10;;;7.85;;
22223;SDS011;11281;52.194;21.006;2023-06-19T20:09:31;11.40;;;7.85;;
22223;SDS011;11281;52.194;21.006;2023-06-19T20:13:33;16.02;;;9.20;;
22223;SDS011;11281;52.194;21.006;2023-06-19T20:17:35;14.35;;;9.35;;
22223;SDS011;11281;52.194;21.006;2023-06-19T20:21:36;18.90;;;10.70;;
22223;SDS011;11281;52.194;21.006;2023-06-19T20:25:38;20.38;;;10.88;;
22223;SDS011;11281;52.194;21.006;2023-06-19T20:29:40;17.80;;;10.75;;
22223;SDS011;11281;52.194;21.006;2023-06-19T20:33:41;19.40;;;11.25;;
22223;SDS011;11281;52.194;21.006;2023-06-19T20:37:43;21.73;;;11.35;;
22223;SDS011;11281;52.194;21.006;2023-06-19T20:41:45;19.77;;;10.05;;
22223;SDS011;11281;52.194;21.006;2023-06-19T20:45:49;16.65;;;10.55;;
22223;SDS011;11281;52.194;21.006;2023-06-19T20:49:51;15.30;;;10.57;;
22223;SDS011;11281;52.194;21.006;2023-06-19T20:53:53;16.00;;;10.63;;
22223;SDS011;11281;52.194;21.006;2023-06-19T20:57:57;14.85;;;9.23;;
22223;SDS011;11281;52.194;21.006;2023-06-19T21:02:05;14.57;;;9.48;;
22223;SDS011;11281;52.194;21.006;2023-06-19T21:06:09;15.85;;;9.15;;
22223;SDS011;11281;52.194;21.006;2023-06-19T21:10:11;13.05;;;8.70;;
22223;SDS011;11281;52.194;21.006;2023-06-19T21:14:13;12.93;;;8.95;;
22223;SDS011;11281;52.194;21.006;2023-06-19T21:18:16;11.80;;;8.60;;
22223;SDS011;11281;52.194;21.006;2023-06-19T21:22:18;14.00;;;8.98;;
22223;SDS011;11281;52.194;21.006;2023-06-19T21:26:20;13.68;;;8.68;;
22223;SDS011;11281;52.194;21.006;2023-06-19T21:30:21;13.18;;;8.93;;
22223;SDS011;11281;52.194;21.006;2023-06-19T21:34:23;15.48;;;9.13;;
22223;SDS011;11281;52.194;21.006;2023-06-19T21:38:25;14.00;;;9.20;;
22223;SDS011;11281;52.194;21.006;2023-06-19T21:42:28;11.98;;;8.68;;
22223;SDS011;11281;52.194;21.006;2023-06-19T21:46:30;11.07;;;8.35;;
22223;SDS011;11281;52.194;21.006;2023-06-19T21:50:32;11.68;;;8.50;;
22223;SDS011;11281;52.194;21.006;2023-06-19T21:54:35;10.40;;;8.32;;
22223;SDS011;11281;52.194;21.006;2023-06-19T21:58:37;11.40;;;7.68;;
22223;SDS011;11281;52.194;21.006;2023-06-19T22:02:38;11.63;;;8.38;;
22223;SDS011;11281;52.194;21.006;2023-06-19T22:06:41;17.23;;;8.32;;
22223;SDS011;11281;52.194;21.006;2023-06-19T22:10:43;10.55;;;8.10;;
22223;SDS011;11281;52.194;21.006;2023-06-19T22:14:45;10.73;;;8.50;;
22223;SDS011;11281;52.194;21.006;2023-06-19T22:18:46;10.45;;;7.80;;
22223;SDS011;11281;52.194;21.006;2023-06-19T22:22:48;10.80;;;7.88;;
22223;SDS011;11281;52.194;21.006;2023-06-19T22:26:50;10.82;;;8.38;;
22223;SDS011;11281;52.194;21.006;2023-06-19T22:30:52;11.13;;;8.13;;
22223;SDS011;11281;52.194;21.006;2023-06-19T22:34:53;9.98;;;7.55;;
22223;SDS011;11281;52.194;21.006;2023-06-19T22:38:54;9.90;;;7.80;;
22223;SDS011;11281;52.194;21.006;2023-06-19T22:42:56;11.65;;;8.50;;
22223;SDS011;11281;52.194;21.006;2023-06-19T22:46:58;10.48;;;8.20;;
22223;SDS011;11281;52.194;21.006;2023-06-19T22:50:59;10.38;;;7.68;;
22223;SDS011;11281;52.194;21.006;2023-06-19T22:55:01;11.57;;;8.75;;
22223;SDS011;11281;52.194;21.006;2023-06-19T22:59:04;11.40;;;8.63;;
22223;SDS011;11281;52.194;21.006;2023-06-19T23:03:05;12.10;;;8.57;;
22223;SDS011;11281;52.194;21.006;2023-06-19T23:07:07;10.40;;;8.02;;
22223;SDS011;11281;52.194;21.006;2023-06-19T23:11:09;11.85;;;7.68;;
22223;SDS011;11281;52.194;21.006;2023-06-19T23:15:11;9.65;;;8.18;;
22223;SDS011;11281;52.194;21.006;2023-06-19T23:19:13;13.15;;;8.30;;
22223;SDS011;11281;52.194;21.006;2023-06-19T23:23:15;10.52;;;8.48;;
22223;SDS011;11281;52.194;21.006;2023-06-19T23:27:21;10.90;;;7.75;;
22223;SDS011;11281;52.194;21.006;2023-06-19T23:31:23;10.90;;;8.70;;
22223;SDS011;11281;52.194;21.006;2023-06-19T23:35:24;12.23;;;8.57;;
22223;SDS011;11281;52.194;21.006;2023-06-19T23:39:26;12.43;;;8.00;;
22223;SDS011;11281;52.194;21.006;2023-06-19T23:43:28;12.75;;;9.13;;
22223;SDS011;11281;52.194;21.006;2023-06-19T23:47:30;9.88;;;7.57;;
22223;SDS011;11281;52.194;21.006;2023-06-19T23:51:32;11.77;;;8.27;;